Lansing, Illinois
Current Conditions -  °F | °C
As of 10:55 PM on Saturday 22 Nov 2014 (Local Time) from KIGQ Reporting Station
Overcast Overcast  
Wind Chill: 50°   Ceiling: 2200
Heat Index: 50°   Visibility: 10mi
Dew Point: 46°   Wind: 15mph
Humidity: 85%   Direction: 200°SSW
Pressure: 29.88"   Gusts: 21mph
Location:  41.56°N, 87.54°W
Report Text: KIGQ 230455Z AUTO 20013G18KT 10SM OVC022 10/08 A2988 RMK AO2 T01020078
Loading
Personal Weather Stations






























Interactive Weather Map New forecast layout! Learn more

10-Day Weather Forecast

Advertisements
Track Severe Weather on mobile